Airfield :
LOGIN :

Register | Disclaimer

   EN    FR    IT 

 










Legend :    VFR   Marginal VFR   IFR   Intensive IFR   Very Intensive IFR
Visi :
Ceiling :
>= 8 km
>= 3000ft
5 to 8 km
1000 to 3000 ft
1500m to 5 km
500 to 1000 ft
800 to 1500m
200 to 500 ft
< 800m
< 200 ft
Symbols :   Thunderstorms  Fog  Heavy snow  Heavy precipitations  Wind > 20 kt
SIGMETs :     Misc.  Thunderstorms  Icing  Turbulence  Mountain Waves  Volcanic Ashes






- Airport Elevation : 355 ft
- IATA code : VBS


LIPO - Montichiari - Brescia

CURRENT METAR :
  • 010320Z AUTO 36004KT 9999 NCD 03/M00 Q1030

EXPIRED METARs :
  • 010250Z AUTO 34006KT 9999 NCD 02/M01 Q1030
  • 010220Z AUTO 35004KT 9999 NCD 02/M01 Q1031
  • 010150Z AUTO 34002KT 9999 NCD 04/00 Q1031
  • 010120Z AUTO 02003KT 9999 NCD 04/00 Q1031
  • 010050Z AUTO 04003KT 9999 NCD 04/00 Q1031
  • 010020Z AUTO 11001KT 9999 NCD 04/M00 Q1031

TAF TAF LIPO
Valid from the 01 at 00:00 until the 02 at 00:00 UTC


282300Z 0100/0124 VRB04KT CAVOK
TEMPO 0103/0106 4000 BR



MET'MAP, your aeronautical weather chart ! - Copyright ORBIFLY December 2007 - Disclaimer

ORBIFLY MET'MAP TEAM :

Programming & Development : Alexandra Zaïnal
Concept & original design : Baudouin d'Aumeries
Assistance for programming : Marc-Olivier Méhu
Technical & hardware support : Manuel Goepfert

Contact : metmap@orbifly.com




SOURCES & CREDITS :

   NOAA